This is the latest recevied weather packets stored in our database for station/object KA5FVT. If no packets are shown the sender has not sent any weather packets the latest 10 day(s).
| Time | Temp. | Humidity | Pressure | Rain* | Wind** | Luminosity | Snow |
|---|---|---|---|---|---|---|---|
| 1777451367 | 25.56° C | 86% | 1010.6 hPa | 0 mm | - | - | - |
| 1777451066 | 25.56° C | 85% | 1010.7 hPa | 0 mm | - | - | - |
| 1777449566 | 25.56° C | 84% | 1011.1 hPa | 0 mm | - | - | - |
| 1777448666 | 25.56° C | 84% | 1011.2 hPa | 0 mm | - | - | - |
| 1777441769 | 26.11° C | 83% | 1012.1 hPa | 0 mm | - | - | - |
| 1777440566 | 26.67° C | 83% | 1012.2 hPa | 0 mm | - | - | - |
| 1777439666 | 26.67° C | 82% | 1012.2 hPa | 0 mm | - | - | - |
| 1777437866 | 26.67° C | 81% | 1012.1 hPa | 0 mm | - | - | - |
| 1777436966 | 26.67° C | 81% | 1012.2 hPa | 0 mm | - | - | - |
| 1777435766 | 26.67° C | 80% | 1012.4 hPa | 0 mm | - | - | - |
| 1777430666 | 26.67° C | 78% | 1011.7 hPa | 0 mm | - | - | - |
| 1777422866 | 29.44° C | 71% | 1011 hPa | 0 mm | - | - | - |
| 1777421666 | 30° C | 70% | 1010.7 hPa | 0 mm | - | - | - |
| 1777418666 | 31.67° C | 63% | 1010.1 hPa | 0 mm | - | - | - |
| 1777417770 | 32.22° C | 61% | 1010.2 hPa | 0 mm | - | - | - |
| 1777415969 | 32.22° C | 59% | 1010.1 hPa | 0 mm | - | - | - |
| 1777415066 | 32.22° C | 59% | 1010.2 hPa | 0 mm | - | - | - |
| 1777414466 | 31.67° C | 60% | 1010.1 hPa | 0 mm | - | - | - |
| 1777412966 | 31.67° C | 59% | 1010.7 hPa | 0 mm | - | - | - |
| 1777412066 | 31.67° C | 62% | 1011 hPa | 0 mm | - | - | - |
| 1777409367 | 32.78° C | 58% | 1011.3 hPa | 0 mm | - | - | - |
| 1777409066 | 32.78° C | 59% | 1011.4 hPa | 0 mm | - | - | - |
| 1777408769 | 32.78° C | 59% | 1011.4 hPa | 0 mm | - | - | - |
| 1777407566 | 33.33° C | 57% | 1011.8 hPa | 0 mm | - | - | - |
| 1777406666 | 33.33° C | 56% | 1012.1 hPa | 0 mm | - | - | - |
* Rain latest hour (hover to see other rain measurements)
** Current wind speed in m/s (hover to see current wind gust speed)